sensor_id;sensor_type;location;lat;lon;timestamp;P1;durP1;ratioP1;P2;durP2;ratioP2
39482;SDS011;25682;48.438;1.482;2022-09-09T00:00:17;4.68;;;1.38;;
39482;SDS011;25682;48.438;1.482;2022-09-09T00:02:46;3.05;;;0.90;;
39482;SDS011;25682;48.438;1.482;2022-09-09T00:07:54;3.83;;;1.02;;
39482;SDS011;25682;48.438;1.482;2022-09-09T00:10:42;5.43;;;1.60;;
39482;SDS011;25682;48.438;1.482;2022-09-09T00:13:26;3.92;;;1.10;;
39482;SDS011;25682;48.438;1.482;2022-09-09T00:23:25;4.13;;;1.40;;
39482;SDS011;25682;48.438;1.482;2022-09-09T00:28:19;3.17;;;1.52;;
39482;SDS011;25682;48.438;1.482;2022-09-09T00:30:46;4.32;;;1.30;;
39482;SDS011;25682;48.438;1.482;2022-09-09T00:33:17;8.50;;;1.42;;
39482;SDS011;25682;48.438;1.482;2022-09-09T00:35:51;3.58;;;1.20;;
39482;SDS011;25682;48.438;1.482;2022-09-09T00:38:19;4.47;;;1.50;;
39482;SDS011;25682;48.438;1.482;2022-09-09T00:40:50;5.43;;;2.00;;
39482;SDS011;25682;48.438;1.482;2022-09-09T00:43:24;4.43;;;1.30;;
39482;SDS011;25682;48.438;1.482;2022-09-09T00:48:25;4.55;;;1.35;;
39482;SDS011;25682;48.438;1.482;2022-09-09T00:50:55;2.25;;;1.15;;
39482;SDS011;25682;48.438;1.482;2022-09-09T00:56:11;3.38;;;1.30;;
39482;SDS011;25682;48.438;1.482;2022-09-09T00:58:38;3.88;;;1.10;;
39482;SDS011;25682;48.438;1.482;2022-09-09T01:01:04;3.30;;;1.17;;
39482;SDS011;25682;48.438;1.482;2022-09-09T01:03:35;3.08;;;1.17;;
39482;SDS011;25682;48.438;1.482;2022-09-09T01:13:44;5.55;;;1.70;;
39482;SDS011;25682;48.438;1.482;2022-09-09T01:16:12;4.68;;;1.35;;
39482;SDS011;25682;48.438;1.482;2022-09-09T01:18:39;5.28;;;1.67;;
39482;SDS011;25682;48.438;1.482;2022-09-09T01:23:41;4.13;;;1.23;;
39482;SDS011;25682;48.438;1.482;2022-09-09T01:28:37;3.50;;;1.17;;
39482;SDS011;25682;48.438;1.482;2022-09-09T01:31:05;3.75;;;1.20;;
39482;SDS011;25682;48.438;1.482;2022-09-09T01:33:32;5.38;;;1.55;;
39482;SDS011;25682;48.438;1.482;2022-09-09T01:36:20;5.03;;;1.42;;
39482;SDS011;25682;48.438;1.482;2022-09-09T01:38:44;8.43;;;1.67;;
39482;SDS011;25682;48.438;1.482;2022-09-09T01:41:10;5.32;;;1.40;;
39482;SDS011;25682;48.438;1.482;2022-09-09T01:43:36;2.58;;;1.08;;
39482;SDS011;25682;48.438;1.482;2022-09-09T01:46:03;3.33;;;1.50;;
39482;SDS011;25682;48.438;1.482;2022-09-09T01:48:29;4.63;;;1.33;;
39482;SDS011;25682;48.438;1.482;2022-09-09T01:50:55;3.30;;;1.40;;
39482;SDS011;25682;48.438;1.482;2022-09-09T01:53:21;4.07;;;1.30;;
39482;SDS011;25682;48.438;1.482;2022-09-09T01:59:16;4.15;;;1.40;;
39482;SDS011;25682;48.438;1.482;2022-09-09T02:04:03;4.05;;;1.30;;
39482;SDS011;25682;48.438;1.482;2022-09-09T02:06:35;3.60;;;1.17;;
39482;SDS011;25682;48.438;1.482;2022-09-09T02:09:04;5.70;;;1.45;;
39482;SDS011;25682;48.438;1.482;2022-09-09T02:11:30;6.00;;;1.75;;
39482;SDS011;25682;48.438;1.482;2022-09-09T02:13:58;3.55;;;1.30;;
39482;SDS011;25682;48.438;1.482;2022-09-09T02:19:21;4.78;;;1.35;;
39482;SDS011;25682;48.438;1.482;2022-09-09T02:21:52;5.03;;;1.27;;
39482;SDS011;25682;48.438;1.482;2022-09-09T02:24:19;5.18;;;1.55;;
39482;SDS011;25682;48.438;1.482;2022-09-09T02:26:45;5.13;;;1.98;;
39482;SDS011;25682;48.438;1.482;2022-09-09T02:29:20;4.68;;;1.23;;
39482;SDS011;25682;48.438;1.482;2022-09-09T02:31:47;6.40;;;1.48;;
39482;SDS011;25682;48.438;1.482;2022-09-09T02:34:14;4.90;;;1.38;;
39482;SDS011;25682;48.438;1.482;2022-09-09T02:36:43;3.67;;;1.10;;
39482;SDS011;25682;48.438;1.482;2022-09-09T02:39:10;2.67;;;1.33;;
39482;SDS011;25682;48.438;1.482;2022-09-09T02:41:38;4.18;;;1.40;;
39482;SDS011;25682;48.438;1.482;2022-09-09T02:44:05;3.55;;;1.40;;
39482;SDS011;25682;48.438;1.482;2022-09-09T02:49:17;6.20;;;1.40;;
39482;SDS011;25682;48.438;1.482;2022-09-09T02:51:51;5.75;;;1.45;;
39482;SDS011;25682;48.438;1.482;2022-09-09T02:56:52;5.55;;;1.48;;
39482;SDS011;25682;48.438;1.482;2022-09-09T02:59:21;4.55;;;1.50;;
39482;SDS011;25682;48.438;1.482;2022-09-09T03:01:48;4.55;;;1.45;;
39482;SDS011;25682;48.438;1.482;2022-09-09T03:04:14;3.88;;;1.30;;
39482;SDS011;25682;48.438;1.482;2022-09-09T03:06:40;5.38;;;1.92;;
39482;SDS011;25682;48.438;1.482;2022-09-09T03:09:06;6.95;;;1.50;;
39482;SDS011;25682;48.438;1.482;2022-09-09T03:11:35;2.55;;;1.08;;
39482;SDS011;25682;48.438;1.482;2022-09-09T03:14:01;5.80;;;1.40;;
39482;SDS011;25682;48.438;1.482;2022-09-09T03:16:27;5.75;;;1.20;;
39482;SDS011;25682;48.438;1.482;2022-09-09T03:18:53;10.07;;;1.90;;
39482;SDS011;25682;48.438;1.482;2022-09-09T03:21:19;7.50;;;1.67;;
39482;SDS011;25682;48.438;1.482;2022-09-09T03:23:45;4.22;;;1.35;;
39482;SDS011;25682;48.438;1.482;2022-09-09T03:26:11;3.60;;;1.27;;
39482;SDS011;25682;48.438;1.482;2022-09-09T03:28:40;2.45;;;1.05;;
39482;SDS011;25682;48.438;1.482;2022-09-09T03:31:06;2.55;;;1.10;;
39482;SDS011;25682;48.438;1.482;2022-09-09T03:33:35;4.78;;;1.77;;
39482;SDS011;25682;48.438;1.482;2022-09-09T03:36:02;4.90;;;1.73;;
39482;SDS011;25682;48.438;1.482;2022-09-09T03:38:28;5.85;;;1.58;;
39482;SDS011;25682;48.438;1.482;2022-09-09T03:40:54;11.15;;;1.85;;
39482;SDS011;25682;48.438;1.482;2022-09-09T03:43:25;5.13;;;1.45;;
39482;SDS011;25682;48.438;1.482;2022-09-09T03:45:51;4.05;;;1.15;;
39482;SDS011;25682;48.438;1.482;2022-09-09T03:48:17;2.97;;;1.10;;
39482;SDS011;25682;48.438;1.482;2022-09-09T03:50:44;4.68;;;1.40;;
39482;SDS011;25682;48.438;1.482;2022-09-09T03:53:10;4.13;;;1.65;;
39482;SDS011;25682;48.438;1.482;2022-09-09T03:55:36;3.85;;;1.58;;
39482;SDS011;25682;48.438;1.482;2022-09-09T03:58:02;3.50;;;1.35;;
39482;SDS011;25682;48.438;1.482;2022-09-09T04:00:28;2.45;;;1.27;;
39482;SDS011;25682;48.438;1.482;2022-09-09T04:02:55;4.82;;;1.33;;
39482;SDS011;25682;48.438;1.482;2022-09-09T04:05:22;5.72;;;1.50;;
39482;SDS011;25682;48.438;1.482;2022-09-09T04:07:48;2.80;;;1.40;;
39482;SDS011;25682;48.438;1.482;2022-09-09T04:10:16;6.85;;;1.42;;
39482;SDS011;25682;48.438;1.482;2022-09-09T04:12:42;4.60;;;1.85;;
39482;SDS011;25682;48.438;1.482;2022-09-09T04:15:09;4.68;;;1.25;;
39482;SDS011;25682;48.438;1.482;2022-09-09T04:17:35;2.63;;;1.08;;
39482;SDS011;25682;48.438;1.482;2022-09-09T04:20:02;4.18;;;1.42;;
39482;SDS011;25682;48.438;1.482;2022-09-09T04:22:28;3.50;;;1.55;;
39482;SDS011;25682;48.438;1.482;2022-09-09T04:24:54;5.97;;;1.70;;
39482;SDS011;25682;48.438;1.482;2022-09-09T04:27:20;5.72;;;1.63;;
39482;SDS011;25682;48.438;1.482;2022-09-09T04:29:46;4.10;;;1.45;;
39482;SDS011;25682;48.438;1.482;2022-09-09T04:32:12;4.32;;;1.48;;
39482;SDS011;25682;48.438;1.482;2022-09-09T04:34:38;3.95;;;1.08;;
39482;SDS011;25682;48.438;1.482;2022-09-09T04:37:06;5.30;;;1.73;;
39482;SDS011;25682;48.438;1.482;2022-09-09T04:39:32;5.28;;;1.33;;
39482;SDS011;25682;48.438;1.482;2022-09-09T04:41:58;5.20;;;1.50;;
39482;SDS011;25682;48.438;1.482;2022-09-09T04:44:24;4.82;;;1.30;;
39482;SDS011;25682;48.438;1.482;2022-09-09T04:46:50;6.70;;;1.92;;
39482;SDS011;25682;48.438;1.482;2022-09-09T04:49:16;5.63;;;1.33;;
39482;SDS011;25682;48.438;1.482;2022-09-09T04:51:42;4.72;;;0.98;;
39482;SDS011;25682;48.438;1.482;2022-09-09T04:54:08;4.00;;;1.60;;
39482;SDS011;25682;48.438;1.482;2022-09-09T04:56:35;4.13;;;1.30;;
39482;SDS011;25682;48.438;1.482;2022-09-09T04:59:01;6.57;;;1.90;;
39482;SDS011;25682;48.438;1.482;2022-09-09T05:01:28;3.75;;;1.63;;
39482;SDS011;25682;48.438;1.482;2022-09-09T05:03:54;4.90;;;1.63;;
39482;SDS011;25682;48.438;1.482;2022-09-09T05:06:20;7.13;;;1.67;;
39482;SDS011;25682;48.438;1.482;2022-09-09T05:08:47;6.53;;;1.75;;
39482;SDS011;25682;48.438;1.482;2022-09-09T05:11:19;4.15;;;1.48;;
39482;SDS011;25682;48.438;1.482;2022-09-09T05:13:48;4.72;;;1.65;;
39482;SDS011;25682;48.438;1.482;2022-09-09T05:16:15;3.97;;;1.33;;
39482;SDS011;25682;48.438;1.482;2022-09-09T05:18:41;5.38;;;1.48;;
39482;SDS011;25682;48.438;1.482;2022-09-09T05:21:11;5.15;;;1.83;;
39482;SDS011;25682;48.438;1.482;2022-09-09T05:23:37;5.22;;;1.52;;
39482;SDS011;25682;48.438;1.482;2022-09-09T05:26:03;5.18;;;1.60;;
39482;SDS011;25682;48.438;1.482;2022-09-09T05:28:30;3.75;;;1.23;;
39482;SDS011;25682;48.438;1.482;2022-09-09T05:30:59;5.35;;;1.30;;
39482;SDS011;25682;48.438;1.482;2022-09-09T05:33:26;5.53;;;1.50;;
39482;SDS011;25682;48.438;1.482;2022-09-09T05:35:59;4.38;;;1.75;;
39482;SDS011;25682;48.438;1.482;2022-09-09T05:38:25;5.50;;;1.48;;
39482;SDS011;25682;48.438;1.482;2022-09-09T05:40:52;5.85;;;1.73;;
39482;SDS011;25682;48.438;1.482;2022-09-09T05:43:18;3.10;;;0.90;;
39482;SDS011;25682;48.438;1.482;2022-09-09T05:45:45;5.05;;;1.30;;
39482;SDS011;25682;48.438;1.482;2022-09-09T05:48:12;3.38;;;1.27;;
39482;SDS011;25682;48.438;1.482;2022-09-09T05:50:40;5.60;;;1.90;;
39482;SDS011;25682;48.438;1.482;2022-09-09T05:53:06;5.65;;;1.30;;
39482;SDS011;25682;48.438;1.482;2022-09-09T05:55:32;4.97;;;1.63;;
39482;SDS011;25682;48.438;1.482;2022-09-09T05:57:58;11.70;;;1.73;;
39482;SDS011;25682;48.438;1.482;2022-09-09T06:00:24;6.70;;;1.90;;
39482;SDS011;25682;48.438;1.482;2022-09-09T06:02:51;6.15;;;1.27;;
39482;SDS011;25682;48.438;1.482;2022-09-09T06:05:18;9.73;;;2.17;;
39482;SDS011;25682;48.438;1.482;2022-09-09T06:07:44;8.90;;;1.52;;
39482;SDS011;25682;48.438;1.482;2022-09-09T06:10:13;8.65;;;1.80;;
39482;SDS011;25682;48.438;1.482;2022-09-09T06:12:39;8.77;;;1.50;;
39482;SDS011;25682;48.438;1.482;2022-09-09T06:15:05;8.63;;;2.08;;
39482;SDS011;25682;48.438;1.482;2022-09-09T06:17:32;10.85;;;2.25;;
39482;SDS011;25682;48.438;1.482;2022-09-09T06:19:58;5.18;;;2.13;;
39482;SDS011;25682;48.438;1.482;2022-09-09T06:22:24;7.60;;;1.58;;
39482;SDS011;25682;48.438;1.482;2022-09-09T06:24:50;5.50;;;1.63;;
39482;SDS011;25682;48.438;1.482;2022-09-09T06:27:16;14.43;;;1.60;;
39482;SDS011;25682;48.438;1.482;2022-09-09T06:29:42;9.38;;;1.90;;
39482;SDS011;25682;48.438;1.482;2022-09-09T06:32:08;10.73;;;1.88;;
39482;SDS011;25682;48.438;1.482;2022-09-09T06:34:34;12.88;;;1.67;;
39482;SDS011;25682;48.438;1.482;2022-09-09T06:37:01;10.07;;;1.70;;
39482;SDS011;25682;48.438;1.482;2022-09-09T06:39:27;7.55;;;1.23;;
39482;SDS011;25682;48.438;1.482;2022-09-09T06:41:53;4.88;;;1.73;;
39482;SDS011;25682;48.438;1.482;2022-09-09T06:44:19;5.65;;;1.77;;
39482;SDS011;25682;48.438;1.482;2022-09-09T06:46:45;5.18;;;1.25;;
39482;SDS011;25682;48.438;1.482;2022-09-09T06:49:13;3.22;;;1.50;;
39482;SDS011;25682;48.438;1.482;2022-09-09T06:51:39;5.32;;;1.83;;
39482;SDS011;25682;48.438;1.482;2022-09-09T06:54:08;4.63;;;1.33;;
39482;SDS011;25682;48.438;1.482;2022-09-09T06:56:35;29.27;;;2.28;;
39482;SDS011;25682;48.438;1.482;2022-09-09T06:59:03;5.32;;;1.38;;
39482;SDS011;25682;48.438;1.482;2022-09-09T07:01:31;6.40;;;1.75;;
39482;SDS011;25682;48.438;1.482;2022-09-09T07:03:57;7.60;;;1.27;;
39482;SDS011;25682;48.438;1.482;2022-09-09T07:06:28;12.45;;;1.75;;
39482;SDS011;25682;48.438;1.482;2022-09-09T07:08:55;8.73;;;1.95;;
39482;SDS011;25682;48.438;1.482;2022-09-09T07:11:21;12.65;;;2.35;;
39482;SDS011;25682;48.438;1.482;2022-09-09T07:13:48;11.73;;;2.13;;
39482;SDS011;25682;48.438;1.482;2022-09-09T07:16:15;6.55;;;1.60;;
39482;SDS011;25682;48.438;1.482;2022-09-09T07:18:42;10.30;;;2.05;;
39482;SDS011;25682;48.438;1.482;2022-09-09T07:21:09;6.00;;;1.83;;
39482;SDS011;25682;48.438;1.482;2022-09-09T07:23:36;10.02;;;2.00;;
39482;SDS011;25682;48.438;1.482;2022-09-09T07:26:07;5.72;;;1.58;;
39482;SDS011;25682;48.438;1.482;2022-09-09T07:28:33;8.02;;;1.88;;
39482;SDS011;25682;48.438;1.482;2022-09-09T07:31:00;11.60;;;2.17;;
39482;SDS011;25682;48.438;1.482;2022-09-09T07:33:27;7.72;;;1.80;;
39482;SDS011;25682;48.438;1.482;2022-09-09T07:36:01;8.68;;;2.30;;
39482;SDS011;25682;48.438;1.482;2022-09-09T07:38:27;10.27;;;3.15;;
39482;SDS011;25682;48.438;1.482;2022-09-09T07:41:01;13.18;;;2.25;;
39482;SDS011;25682;48.438;1.482;2022-09-09T07:43:27;10.32;;;2.00;;
39482;SDS011;25682;48.438;1.482;2022-09-09T07:45:57;7.20;;;2.40;;
39482;SDS011;25682;48.438;1.482;2022-09-09T07:48:23;7.38;;;1.83;;
39482;SDS011;25682;48.438;1.482;2022-09-09T07:50:49;13.27;;;2.72;;
39482;SDS011;25682;48.438;1.482;2022-09-09T07:53:16;9.68;;;1.75;;
39482;SDS011;25682;48.438;1.482;2022-09-09T07:55:42;11.30;;;2.17;;
39482;SDS011;25682;48.438;1.482;2022-09-09T07:58:08;6.88;;;2.10;;
39482;SDS011;25682;48.438;1.482;2022-09-09T08:00:34;6.65;;;1.98;;
39482;SDS011;25682;48.438;1.482;2022-09-09T08:03:00;6.72;;;1.73;;
39482;SDS011;25682;48.438;1.482;2022-09-09T08:05:27;10.05;;;2.10;;
39482;SDS011;25682;48.438;1.482;2022-09-09T08:07:53;8.30;;;2.28;;
39482;SDS011;25682;48.438;1.482;2022-09-09T08:10:19;6.90;;;2.13;;
39482;SDS011;25682;48.438;1.482;2022-09-09T08:12:45;13.20;;;1.98;;
39482;SDS011;25682;48.438;1.482;2022-09-09T08:15:11;7.03;;;1.85;;
39482;SDS011;25682;48.438;1.482;2022-09-09T08:17:37;7.07;;;2.15;;
39482;SDS011;25682;48.438;1.482;2022-09-09T08:20:03;10.32;;;1.83;;
39482;SDS011;25682;48.438;1.482;2022-09-09T08:22:29;7.60;;;1.80;;
39482;SDS011;25682;48.438;1.482;2022-09-09T08:24:56;7.05;;;1.92;;
39482;SDS011;25682;48.438;1.482;2022-09-09T08:27:22;6.93;;;1.67;;
39482;SDS011;25682;48.438;1.482;2022-09-09T08:29:49;7.45;;;2.15;;
39482;SDS011;25682;48.438;1.482;2022-09-09T08:32:15;9.70;;;1.90;;
39482;SDS011;25682;48.438;1.482;2022-09-09T08:34:41;9.05;;;1.90;;
39482;SDS011;25682;48.438;1.482;2022-09-09T08:37:07;7.93;;;2.63;;
39482;SDS011;25682;48.438;1.482;2022-09-09T08:39:33;9.15;;;2.45;;
39482;SDS011;25682;48.438;1.482;2022-09-09T08:49:46;6.43;;;1.98;;
39482;SDS011;25682;48.438;1.482;2022-09-09T08:52:13;4.97;;;2.20;;
39482;SDS011;25682;48.438;1.482;2022-09-09T08:54:41;6.45;;;1.90;;
39482;SDS011;25682;48.438;1.482;2022-09-09T08:57:09;6.25;;;2.13;;
39482;SDS011;25682;48.438;1.482;2022-09-09T08:59:38;7.43;;;1.98;;
39482;SDS011;25682;48.438;1.482;2022-09-09T09:02:51;5.80;;;1.73;;
39482;SDS011;25682;48.438;1.482;2022-09-09T09:05:06;8.23;;;1.65;;
39482;SDS011;25682;48.438;1.482;2022-09-09T09:12:51;5.13;;;1.80;;
39482;SDS011;25682;48.438;1.482;2022-09-09T09:15:21;7.45;;;1.70;;
39482;SDS011;25682;48.438;1.482;2022-09-09T09:17:48;8.05;;;1.90;;
39482;SDS011;25682;48.438;1.482;2022-09-09T09:20:15;8.88;;;1.75;;
39482;SDS011;25682;48.438;1.482;2022-09-09T09:27:46;3.58;;;1.58;;
39482;SDS011;25682;48.438;1.482;2022-09-09T09:30:15;6.60;;;1.55;;
39482;SDS011;25682;48.438;1.482;2022-09-09T09:32:44;14.05;;;2.53;;
39482;SDS011;25682;48.438;1.482;2022-09-09T09:35:13;9.27;;;1.35;;
39482;SDS011;25682;48.438;1.482;2022-09-09T09:37:40;6.13;;;1.23;;
39482;SDS011;25682;48.438;1.482;2022-09-09T09:40:16;7.57;;;2.13;;
39482;SDS011;25682;48.438;1.482;2022-09-09T09:42:52;6.68;;;2.08;;
39482;SDS011;25682;48.438;1.482;2022-09-09T09:45:22;5.18;;;1.65;;
39482;SDS011;25682;48.438;1.482;2022-09-09T09:48:00;5.97;;;1.58;;
39482;SDS011;25682;48.438;1.482;2022-09-09T09:50:27;7.32;;;1.45;;
39482;SDS011;25682;48.438;1.482;2022-09-09T09:52:56;4.57;;;1.42;;
39482;SDS011;25682;48.438;1.482;2022-09-09T09:55:23;4.50;;;1.38;;
39482;SDS011;25682;48.438;1.482;2022-09-09T09:57:50;6.93;;;1.80;;
39482;SDS011;25682;48.438;1.482;2022-09-09T10:00:17;9.93;;;2.42;;
39482;SDS011;25682;48.438;1.482;2022-09-09T10:02:45;7.40;;;2.10;;
39482;SDS011;25682;48.438;1.482;2022-09-09T10:05:15;6.13;;;2.40;;
39482;SDS011;25682;48.438;1.482;2022-09-09T10:07:42;5.60;;;2.60;;
39482;SDS011;25682;48.438;1.482;2022-09-09T10:10:59;7.10;;;2.55;;
39482;SDS011;25682;48.438;1.482;2022-09-09T10:13:34;9.18;;;2.88;;
39482;SDS011;25682;48.438;1.482;2022-09-09T10:36:18;11.80;;;2.75;;
39482;SDS011;25682;48.438;1.482;2022-09-09T10:38:45;7.25;;;2.63;;
39482;SDS011;25682;48.438;1.482;2022-09-09T10:41:16;7.25;;;2.65;;
39482;SDS011;25682;48.438;1.482;2022-09-09T10:43:54;11.35;;;2.72;;
39482;SDS011;25682;48.438;1.482;2022-09-09T10:51:27;7.30;;;2.85;;
39482;SDS011;25682;48.438;1.482;2022-09-09T10:56:42;9.63;;;2.72;;
39482;SDS011;25682;48.438;1.482;2022-09-09T10:59:14;9.50;;;2.47;;
39482;SDS011;25682;48.438;1.482;2022-09-09T11:01:43;8.80;;;2.20;;
39482;SDS011;25682;48.438;1.482;2022-09-09T11:04:23;10.07;;;2.20;;
39482;SDS011;25682;48.438;1.482;2022-09-09T11:06:53;7.80;;;2.38;;
39482;SDS011;25682;48.438;1.482;2022-09-09T11:09:22;9.48;;;2.70;;
39482;SDS011;25682;48.438;1.482;2022-09-09T11:14:19;9.40;;;2.40;;
39482;SDS011;25682;48.438;1.482;2022-09-09T11:16:57;6.72;;;2.40;;
39482;SDS011;25682;48.438;1.482;2022-09-09T11:19:34;10.45;;;2.45;;
39482;SDS011;25682;48.438;1.482;2022-09-09T11:22:02;6.38;;;2.17;;
39482;SDS011;25682;48.438;1.482;2022-09-09T11:24:40;10.38;;;2.33;;
39482;SDS011;25682;48.438;1.482;2022-09-09T11:32:48;7.15;;;2.17;;
39482;SDS011;25682;48.438;1.482;2022-09-09T11:40:23;5.75;;;1.60;;
39482;SDS011;25682;48.438;1.482;2022-09-09T11:42:59;6.50;;;1.83;;
39482;SDS011;25682;48.438;1.482;2022-09-09T11:45:27;8.48;;;1.77;;
39482;SDS011;25682;48.438;1.482;2022-09-09T11:47:57;4.72;;;1.70;;
39482;SDS011;25682;48.438;1.482;2022-09-09T11:52:50;9.68;;;2.70;;
39482;SDS011;25682;48.438;1.482;2022-09-09T11:55:28;6.65;;;1.48;;
39482;SDS011;25682;48.438;1.482;2022-09-09T11:58:01;6.43;;;1.33;;
39482;SDS011;25682;48.438;1.482;2022-09-09T12:00:30;6.07;;;1.50;;
39482;SDS011;25682;48.438;1.482;2022-09-09T12:02:57;3.97;;;1.40;;
39482;SDS011;25682;48.438;1.482;2022-09-09T12:05:23;6.50;;;1.63;;
39482;SDS011;25682;48.438;1.482;2022-09-09T12:07:51;6.03;;;1.80;;
39482;SDS011;25682;48.438;1.482;2022-09-09T12:10:34;5.93;;;2.00;;
39482;SDS011;25682;48.438;1.482;2022-09-09T12:13:08;4.82;;;1.38;;
39482;SDS011;25682;48.438;1.482;2022-09-09T12:15:34;5.97;;;1.40;;
39482;SDS011;25682;48.438;1.482;2022-09-09T12:18:00;3.83;;;1.30;;
39482;SDS011;25682;48.438;1.482;2022-09-09T12:28:04;3.65;;;1.50;;
39482;SDS011;25682;48.438;1.482;2022-09-09T12:30:34;2.78;;;0.93;;
39482;SDS011;25682;48.438;1.482;2022-09-09T12:33:02;4.80;;;1.38;;
39482;SDS011;25682;48.438;1.482;2022-09-09T12:35:34;4.95;;;1.48;;
39482;SDS011;25682;48.438;1.482;2022-09-09T12:38:03;2.40;;;1.20;;
39482;SDS011;25682;48.438;1.482;2022-09-09T12:40:33;2.70;;;0.90;;
39482;SDS011;25682;48.438;1.482;2022-09-09T12:43:00;3.72;;;1.58;;
39482;SDS011;25682;48.438;1.482;2022-09-09T12:45:28;4.47;;;1.35;;
39482;SDS011;25682;48.438;1.482;2022-09-09T12:50:25;2.63;;;1.23;;
39482;SDS011;25682;48.438;1.482;2022-09-09T12:52:52;5.40;;;1.38;;
39482;SDS011;25682;48.438;1.482;2022-09-09T12:55:21;3.80;;;1.20;;
39482;SDS011;25682;48.438;1.482;2022-09-09T12:57:50;5.53;;;1.50;;
39482;SDS011;25682;48.438;1.482;2022-09-09T13:00:21;3.60;;;1.23;;
39482;SDS011;25682;48.438;1.482;2022-09-09T13:02:49;3.95;;;1.20;;
39482;SDS011;25682;48.438;1.482;2022-09-09T13:05:16;4.05;;;1.30;;
39482;SDS011;25682;48.438;1.482;2022-09-09T13:07:43;6.60;;;1.23;;
39482;SDS011;25682;48.438;1.482;2022-09-09T13:10:13;8.93;;;1.88;;
39482;SDS011;25682;48.438;1.482;2022-09-09T13:12:40;6.05;;;1.25;;
39482;SDS011;25682;48.438;1.482;2022-09-09T13:15:10;3.15;;;1.30;;
39482;SDS011;25682;48.438;1.482;2022-09-09T13:17:38;3.92;;;1.10;;
39482;SDS011;25682;48.438;1.482;2022-09-09T13:20:06;3.10;;;1.17;;
39482;SDS011;25682;48.438;1.482;2022-09-09T13:22:36;4.95;;;1.33;;
39482;SDS011;25682;48.438;1.482;2022-09-09T13:27:40;4.70;;;1.67;;
39482;SDS011;25682;48.438;1.482;2022-09-09T13:30:27;5.93;;;1.38;;
39482;SDS011;25682;48.438;1.482;2022-09-09T13:33:19;8.32;;;1.95;;
39482;SDS011;25682;48.438;1.482;2022-09-09T13:35:48;3.42;;;1.35;;
39482;SDS011;25682;48.438;1.482;2022-09-09T13:38:15;5.38;;;1.40;;
39482;SDS011;25682;48.438;1.482;2022-09-09T13:40:51;4.82;;;1.33;;
39482;SDS011;25682;48.438;1.482;2022-09-09T13:43:20;2.40;;;1.20;;
39482;SDS011;25682;48.438;1.482;2022-09-09T13:45:57;4.35;;;1.45;;
39482;SDS011;25682;48.438;1.482;2022-09-09T13:48:24;5.90;;;0.95;;
39482;SDS011;25682;48.438;1.482;2022-09-09T13:50:57;7.25;;;1.60;;
39482;SDS011;25682;48.438;1.482;2022-09-09T13:53:23;5.40;;;1.80;;
39482;SDS011;25682;48.438;1.482;2022-09-09T13:55:50;7.25;;;2.05;;
39482;SDS011;25682;48.438;1.482;2022-09-09T13:58:17;4.95;;;1.70;;
39482;SDS011;25682;48.438;1.482;2022-09-09T14:00:46;3.15;;;1.17;;
39482;SDS011;25682;48.438;1.482;2022-09-09T14:03:12;4.90;;;1.20;;
39482;SDS011;25682;48.438;1.482;2022-09-09T14:05:39;4.95;;;1.35;;
39482;SDS011;25682;48.438;1.482;2022-09-09T14:08:05;7.05;;;1.98;;
39482;SDS011;25682;48.438;1.482;2022-09-09T14:10:32;4.70;;;1.52;;
39482;SDS011;25682;48.438;1.482;2022-09-09T14:13:00;1.70;;;1.02;;
39482;SDS011;25682;48.438;1.482;2022-09-09T14:15:26;6.25;;;1.15;;
39482;SDS011;25682;48.438;1.482;2022-09-09T14:17:53;7.60;;;1.27;;
39482;SDS011;25682;48.438;1.482;2022-09-09T14:20:19;5.10;;;1.33;;
39482;SDS011;25682;48.438;1.482;2022-09-09T14:22:45;7.90;;;1.27;;
39482;SDS011;25682;48.438;1.482;2022-09-09T14:25:11;3.13;;;1.10;;
39482;SDS011;25682;48.438;1.482;2022-09-09T14:27:38;4.15;;;1.08;;
39482;SDS011;25682;48.438;1.482;2022-09-09T14:30:05;3.75;;;1.40;;
39482;SDS011;25682;48.438;1.482;2022-09-09T14:32:31;5.72;;;1.58;;
39482;SDS011;25682;48.438;1.482;2022-09-09T14:34:58;5.72;;;1.60;;
39482;SDS011;25682;48.438;1.482;2022-09-09T14:37:24;5.65;;;1.27;;
39482;SDS011;25682;48.438;1.482;2022-09-09T14:39:50;3.22;;;1.35;;
39482;SDS011;25682;48.438;1.482;2022-09-09T14:42:16;4.45;;;1.55;;
39482;SDS011;25682;48.438;1.482;2022-09-09T14:44:42;4.47;;;1.38;;
39482;SDS011;25682;48.438;1.482;2022-09-09T14:47:08;5.45;;;1.35;;
39482;SDS011;25682;48.438;1.482;2022-09-09T14:49:35;5.95;;;1.15;;
39482;SDS011;25682;48.438;1.482;2022-09-09T14:52:01;3.15;;;1.20;;
39482;SDS011;25682;48.438;1.482;2022-09-09T14:54:27;3.05;;;1.20;;
39482;SDS011;25682;48.438;1.482;2022-09-09T14:56:54;17.17;;;2.00;;
39482;SDS011;25682;48.438;1.482;2022-09-09T14:59:21;4.45;;;1.75;;
39482;SDS011;25682;48.438;1.482;2022-09-09T15:01:47;6.05;;;1.35;;
39482;SDS011;25682;48.438;1.482;2022-09-09T15:04:13;4.72;;;1.27;;
39482;SDS011;25682;48.438;1.482;2022-09-09T15:06:39;6.68;;;0.90;;
39482;SDS011;25682;48.438;1.482;2022-09-09T15:09:08;5.22;;;1.05;;
39482;SDS011;25682;48.438;1.482;2022-09-09T15:11:35;6.65;;;1.27;;
39482;SDS011;25682;48.438;1.482;2022-09-09T15:14:05;3.35;;;1.25;;
39482;SDS011;25682;48.438;1.482;2022-09-09T15:16:31;5.53;;;1.25;;
39482;SDS011;25682;48.438;1.482;2022-09-09T15:18:58;5.45;;;2.28;;
39482;SDS011;25682;48.438;1.482;2022-09-09T15:21:29;7.93;;;1.27;;
39482;SDS011;25682;48.438;1.482;2022-09-09T15:23:55;7.82;;;1.50;;
39482;SDS011;25682;48.438;1.482;2022-09-09T15:26:22;8.18;;;1.52;;
39482;SDS011;25682;48.438;1.482;2022-09-09T15:28:48;5.78;;;1.35;;
39482;SDS011;25682;48.438;1.482;2022-09-09T15:31:20;6.82;;;1.60;;
39482;SDS011;25682;48.438;1.482;2022-09-09T15:33:50;7.50;;;1.52;;
39482;SDS011;25682;48.438;1.482;2022-09-09T15:38:42;8.32;;;1.88;;
39482;SDS011;25682;48.438;1.482;2022-09-09T15:41:09;8.15;;;2.17;;
39482;SDS011;25682;48.438;1.482;2022-09-09T15:43:35;11.13;;;1.95;;
39482;SDS011;25682;48.438;1.482;2022-09-09T15:46:05;6.03;;;1.77;;
39482;SDS011;25682;48.438;1.482;2022-09-09T15:48:33;18.98;;;3.45;;
39482;SDS011;25682;48.438;1.482;2022-09-09T15:51:03;11.50;;;2.80;;
39482;SDS011;25682;48.438;1.482;2022-09-09T15:53:30;7.53;;;2.72;;
39482;SDS011;25682;48.438;1.482;2022-09-09T15:55:59;11.23;;;3.30;;
39482;SDS011;25682;48.438;1.482;2022-09-09T15:58:25;8.60;;;2.67;;
39482;SDS011;25682;48.438;1.482;2022-09-09T16:00:51;8.68;;;2.33;;
39482;SDS011;25682;48.438;1.482;2022-09-09T16:03:18;9.95;;;2.70;;
39482;SDS011;25682;48.438;1.482;2022-09-09T16:05:49;7.57;;;2.42;;
39482;SDS011;25682;48.438;1.482;2022-09-09T16:08:16;8.60;;;2.13;;
39482;SDS011;25682;48.438;1.482;2022-09-09T16:10:42;12.95;;;2.67;;
39482;SDS011;25682;48.438;1.482;2022-09-09T16:13:09;9.25;;;2.95;;
39482;SDS011;25682;48.438;1.482;2022-09-09T16:15:35;19.83;;;2.72;;
39482;SDS011;25682;48.438;1.482;2022-09-09T16:18:01;13.27;;;3.55;;
39482;SDS011;25682;48.438;1.482;2022-09-09T16:20:28;15.40;;;4.93;;
39482;SDS011;25682;48.438;1.482;2022-09-09T16:22:54;10.57;;;3.03;;
39482;SDS011;25682;48.438;1.482;2022-09-09T16:25:22;25.50;;;3.40;;
39482;SDS011;25682;48.438;1.482;2022-09-09T16:27:48;8.85;;;1.83;;
39482;SDS011;25682;48.438;1.482;2022-09-09T16:30:14;14.10;;;3.35;;
39482;SDS011;25682;48.438;1.482;2022-09-09T16:32:40;10.70;;;2.72;;
39482;SDS011;25682;48.438;1.482;2022-09-09T16:35:06;11.27;;;2.00;;
39482;SDS011;25682;48.438;1.482;2022-09-09T16:37:32;10.20;;;1.98;;
39482;SDS011;25682;48.438;1.482;2022-09-09T16:39:58;9.15;;;2.28;;
39482;SDS011;25682;48.438;1.482;2022-09-09T16:42:24;11.07;;;2.03;;
39482;SDS011;25682;48.438;1.482;2022-09-09T16:44:51;6.05;;;2.42;;
39482;SDS011;25682;48.438;1.482;2022-09-09T16:47:17;10.65;;;2.10;;
39482;SDS011;25682;48.438;1.482;2022-09-09T16:49:43;6.15;;;1.70;;
39482;SDS011;25682;48.438;1.482;2022-09-09T16:52:09;8.85;;;2.78;;